Time;durP1;ratioP1;P1;durP2;ratioP2;P2;SDS_P1;SDS_P2;PMS_P1;PMS_P2;Temp;Humidity;BMP_temperature;BMP_pressure;BME280_temperature;BME280_humidity;BME280_pressure;Samples;Min_cycle;Max_cycle;Signal;HPM_P1;HPM_P2
2021/04/17 00:01:10;;;;;;;10.63;7.72;;;;;;;4.87;87.10;99984.63;5056031;28;20049;-44
2021/04/17 00:03:36;;;;;;;15.32;8.88;;;;;;;4.88;86.87;99974.28;5054951;28;20462;-44
2021/04/17 00:06:01;;;;;;;13.05;7.45;;;;;;;4.88;86.94;99976.88;5055959;28;20051;-44
2021/04/17 00:08:27;;;;;;;14.38;8.90;;;;;;;4.83;87.21;99977.72;5055853;28;20048;-44
2021/04/17 00:10:53;;;;;;;11.57;8.63;;;;;;;4.89;87.14;99980.31;5055021;28;20093;-44
2021/04/17 00:13:19;;;;;;;11.63;8.68;;;;;;;4.90;86.93;99972.53;5056035;28;20045;-44
2021/04/17 00:15:44;;;;;;;14.52;8.50;;;;;;;4.91;86.82;99981.19;5055189;28;20049;-44
2021/04/17 00:18:10;;;;;;;14.80;8.02;;;;;;;4.93;86.79;99971.66;5055695;28;20049;-44
2021/04/17 00:20:36;;;;;;;12.70;7.55;;;;;;;4.99;86.63;99969.06;5055689;28;20045;-44
2021/04/17 00:23:01;;;;;;;11.52;8.40;;;;;;;4.95;86.42;99972.53;5055927;28;20052;-44
2021/04/17 00:25:27;;;;;;;16.83;8.95;;;;;;;4.85;86.81;99974.28;5055435;28;20454;-44
2021/04/17 00:27:53;;;;;;;15.15;8.98;;;;;;;4.90;86.61;99976.84;5055628;28;20097;-44
2021/04/17 00:30:19;;;;;;;15.73;10.20;;;;;;;4.95;86.34;99972.53;5055730;28;20048;-44
2021/04/17 00:32:45;;;;;;;16.02;10.43;;;;;;;4.80;86.69;99972.53;5055546;28;20041;-44
2021/04/17 00:35:11;;;;;;;16.33;9.85;;;;;;;4.77;86.91;99978.56;5055753;28;20124;-44
2021/04/17 00:37:37;;;;;;;12.52;8.57;;;;;;;4.84;87.39;99977.75;5055673;28;20365;-44
2021/04/17 00:40:03;;;;;;;12.00;8.98;;;;;;;4.81;87.37;99974.25;5055438;28;20053;-44
2021/04/17 00:42:29;;;;;;;14.30;9.95;;;;;;;4.79;87.31;99968.22;5055330;28;20052;-44
2021/04/17 00:44:55;;;;;;;14.30;9.90;;;;;;;4.81;87.39;99980.31;5055596;28;20063;-44
2021/04/17 00:47:21;;;;;;;13.98;9.23;;;;;;;4.82;87.26;99976.88;5055217;28;20434;-44
2021/04/17 00:49:47;;;;;;;17.30;9.73;;;;;;;4.85;87.36;99976.88;5054836;28;20085;-44
2021/04/17 00:52:13;;;;;;;14.98;8.80;;;;;;;4.73;87.79;99981.19;5055215;28;20041;-44
2021/04/17 00:54:39;;;;;;;17.60;10.65;;;;;;;4.82;87.42;99982.06;5038087;28;20059;-44
2021/04/17 00:57:04;;;;;;;14.20;9.88;;;;;;;4.78;87.61;99979.47;5055705;28;20121;-44
2021/04/17 00:59:30;;;;;;;14.38;9.90;;;;;;;4.76;87.80;99979.44;5055084;28;20181;-44
2021/04/17 01:01:56;;;;;;;16.45;9.68;;;;;;;4.79;87.60;99979.44;5055888;28;20053;-44
2021/04/17 01:04:26;;;;;;;13.98;9.55;;;;;;;4.83;87.62;99977.72;5055176;28;20049;-44
2021/04/17 01:07:02;;;;;;;14.00;9.80;;;;;;;4.89;87.40;99975.13;5037972;28;20049;-44
2021/04/17 01:09:45;;;;;;;15.10;9.25;;;;;;;4.73;87.58;99975.97;5054469;28;20053;-44
2021/04/17 01:12:19;;;;;;;15.05;8.35;;;;;;;4.76;87.91;99982.03;5055422;28;20355;-44
2021/04/17 01:14:45;;;;;;;17.67;10.13;;;;;;;4.73;87.75;99987.22;5054373;28;20045;-44
2021/04/17 01:17:12;;;;;;;14.30;9.43;;;;;;;4.75;88.06;99977.72;5054259;28;20105;-44
2021/04/17 01:19:40;;;;;;;19.98;10.77;;;;;;;4.84;87.62;99977.75;5054735;28;20049;-44
2021/04/17 01:22:10;;;;;;;17.92;9.35;;;;;;;4.75;87.77;99975.13;5054677;28;20057;-44
2021/04/17 01:24:36;;;;;;;17.13;10.10;;;;;;;4.77;87.83;99975.97;5053811;28;20041;-44
2021/04/17 01:27:02;;;;;;;15.90;9.10;;;;;;;4.74;87.85;99970.78;5054681;28;20110;-44
2021/04/17 01:29:27;;;;;;;14.55;9.45;;;;;;;4.72;87.80;99966.47;5053839;28;20058;-44
2021/04/17 01:31:53;;;;;;;13.52;9.55;;;;;;;4.70;88.02;99974.25;5054567;28;20057;-44
2021/04/17 01:34:19;;;;;;;14.80;9.02;;;;;;;4.64;88.42;99982.88;5053810;28;20045;-44
2021/04/17 01:36:44;;;;;;;15.65;9.75;;;;;;;4.75;88.27;99974.28;5054602;28;20086;-44
2021/04/17 01:39:12;;;;;;;15.68;10.23;;;;;;;4.77;87.89;99972.53;5053565;28;20063;-44
2021/04/17 01:41:47;;;;;;;13.43;8.60;;;;;;;4.80;87.98;99970.78;5054378;28;20048;-45
2021/04/17 01:44:18;;;;;;;15.68;9.85;;;;;;;4.70;88.15;99976.84;5054318;28;20469;-44
2021/04/17 01:46:49;;;;;;;13.73;9.30;;;;;;;4.81;87.89;99966.47;5053848;28;20049;-44
2021/04/17 01:49:15;;;;;;;22.50;11.35;;;;;;;4.85;87.72;99970.81;5053532;28;20056;-44
2021/04/17 01:51:42;;;;;;;18.48;10.02;;;;;;;4.86;87.82;99975.13;5054569;28;20049;-44
2021/04/17 01:54:12;;;;;;;19.02;10.25;;;;;;;4.82;87.83;99976.88;5053415;28;20045;-44
2021/04/17 01:56:38;;;;;;;21.10;8.82;;;;;;;4.77;88.12;99970.78;5054209;28;20049;-44
2021/04/17 01:59:03;;;;;;;17.90;10.43;;;;;;;4.81;87.94;99976.84;5053845;28;20411;-44
2021/04/17 02:01:29;;;;;;;17.13;9.18;;;;;;;4.81;87.98;99969.94;5052712;28;20073;-44
2021/04/17 02:03:55;;;;;;;17.50;9.05;;;;;;;4.85;88.20;99965.63;5054194;28;20045;-44
2021/04/17 02:06:21;;;;;;;18.20;9.98;;;;;;;4.77;88.18;99967.34;5054307;28;20073;-44
2021/04/17 02:08:46;;;;;;;16.52;9.63;;;;;;;4.80;88.04;99964.75;5054034;28;20041;-44
2021/04/17 02:11:12;;;;;;;15.15;10.15;;;;;;;4.81;87.99;99967.34;5054238;28;20049;-44
2021/04/17 02:13:39;;;;;;;15.70;9.35;;;;;;;4.78;88.42;99961.31;5054294;27;20059;-44
2021/04/17 02:16:10;;;;;;;17.02;10.50;;;;;;;4.68;88.47;99963.03;5053003;28;20053;-44
2021/04/17 02:18:58;;;;;;;17.38;10.85;;;;;;;4.74;88.26;99964.72;5054178;28;20064;-44
2021/04/17 02:21:42;;;;;;;21.45;9.93;;;;;;;4.71;88.58;99955.19;5053548;28;20419;-45
2021/04/17 02:24:08;;;;;;;17.50;10.00;;;;;;;4.67;89.07;99959.53;5053213;28;20065;-44
2021/04/17 02:26:34;;;;;;;22.10;10.75;;;;;;;4.79;88.85;99960.44;5053982;28;20053;-44
2021/04/17 02:29:00;;;;;;;19.17;10.88;;;;;;;4.74;88.39;99955.22;5053997;28;20422;-45
2021/04/17 02:31:26;;;;;;;21.67;11.68;;;;;;;4.77;87.87;99950.03;5053926;28;20080;-44
2021/04/17 02:33:52;;;;;;;20.38;9.93;;;;;;;4.81;88.39;99950.88;5053877;28;20049;-45
2021/04/17 02:36:18;;;;;;;21.83;11.23;;;;;;;4.67;88.64;99953.47;5052700;28;20087;-44
2021/04/17 02:38:43;;;;;;;26.95;11.85;;;;;;;4.66;88.88;99955.22;5053627;28;20041;-44
2021/04/17 02:41:11;;;;;;;25.30;12.05;;;;;;;4.69;89.05;99962.16;5053477;28;20045;-44
2021/04/17 02:43:36;;;;;;;25.75;12.25;;;;;;;4.68;89.07;99956.09;5053647;28;20052;-44
2021/04/17 02:46:02;;;;;;;35.35;12.40;;;;;;;4.67;89.11;99956.94;5053513;28;20048;-44
2021/04/17 02:48:28;;;;;;;30.65;12.90;;;;;;;4.66;89.12;99957.81;5052702;28;20052;-45
2021/04/17 02:50:54;;;;;;;26.75;11.45;;;;;;;4.76;89.04;99965.59;5053748;28;20357;-44
2021/04/17 02:53:20;;;;;;;17.92;10.55;;;;;;;4.78;89.21;99956.09;5053602;28;20430;-44
2021/04/17 02:55:45;;;;;;;19.90;11.48;;;;;;;4.84;89.16;99962.16;5053953;27;20045;-45
2021/04/17 02:58:11;;;;;;;25.85;13.02;;;;;;;4.86;88.64;99962.16;5053526;28;20092;-45
2021/04/17 03:00:37;;;;;;;36.83;13.40;;;;;;;4.78;88.62;99962.16;5053553;28;20414;-45
2021/04/17 03:03:03;;;;;;;33.83;14.63;;;;;;;4.56;88.51;99935.31;5053477;28;20339;-44
2021/04/17 03:05:29;;;;;;;29.70;12.73;;;;;;;4.73;88.87;99958.69;5053372;28;20090;-44
2021/04/17 03:07:54;;;;;;;29.95;12.85;;;;;;;4.69;88.87;99955.22;5053416;28;20357;-44
2021/04/17 03:10:20;;;;;;;41.70;12.50;;;;;;;4.77;88.92;99959.53;5053098;28;20105;-44
2021/04/17 03:12:46;;;;;;;24.27;12.15;;;;;;;4.79;88.96;99950.03;5051939;27;20052;-45
2021/04/17 03:15:12;;;;;;;24.30;11.65;;;;;;;4.80;88.83;99951.75;5052467;28;20045;-44
2021/04/17 03:17:38;;;;;;;22.38;11.45;;;;;;;4.83;88.76;99951.78;5053278;28;20079;-45
2021/04/17 03:20:05;;;;;;;26.75;11.95;;;;;;;4.81;88.30;99949.19;5052927;28;20438;-44
2021/04/17 03:22:31;;;;;;;16.17;10.38;;;;;;;4.80;88.75;99951.75;5052976;28;20449;-45
2021/04/17 03:24:57;;;;;;;25.13;11.80;;;;;;;4.75;89.18;99954.38;5053120;28;20049;-45
2021/04/17 03:27:22;;;;;;;21.35;11.27;;;;;;;4.82;89.24;99961.28;5052874;28;20456;-45
2021/04/17 03:29:48;;;;;;;20.20;10.98;;;;;;;4.72;89.07;99959.56;5052909;27;20063;-45
2021/04/17 03:32:14;;;;;;;28.85;12.90;;;;;;;4.79;89.36;99958.69;5053219;27;20055;-45
2021/04/17 03:34:40;;;;;;;45.10;13.15;;;;;;;4.84;88.91;99961.28;5052913;27;20189;-45
2021/04/17 03:37:05;;;;;;;27.55;12.55;;;;;;;4.73;89.08;99960.41;5053038;28;20045;-45
2021/04/17 03:39:31;;;;;;;23.85;13.15;;;;;;;4.78;89.16;99966.50;5052812;27;20045;-45
2021/04/17 03:41:57;;;;;;;51.47;14.02;;;;;;;4.74;88.67;99965.59;5052959;28;20049;-44
2021/04/17 03:44:23;;;;;;;31.85;14.43;;;;;;;4.70;89.38;99976.84;5052647;28;20041;-44
2021/04/17 03:46:48;;;;;;;45.13;16.90;;;;;;;4.68;89.62;99974.25;5052911;28;20053;-44
2021/04/17 03:49:14;;;;;;;32.08;13.32;;;;;;;4.70;89.32;99974.25;5052775;27;20392;-45
2021/04/17 03:51:40;;;;;;;53.00;16.20;;;;;;;4.66;89.99;99975.13;5052813;28;20349;-45
2021/04/17 03:54:06;;;;;;;55.10;14.48;;;;;;;4.64;90.04;99976.81;5052630;27;20045;-44
2021/04/17 03:56:32;;;;;;;69.97;15.93;;;;;;;4.67;89.79;99969.91;5052477;28;20060;-45
2021/04/17 03:58:58;;;;;;;35.45;13.15;;;;;;;4.72;89.83;99972.53;5052758;28;20045;-44
2021/04/17 04:01:23;;;;;;;40.58;14.65;;;;;;;4.74;89.68;99977.69;5052685;28;20059;-44
2021/04/17 04:03:49;;;;;;;25.38;14.40;;;;;;;4.75;89.87;99982.91;5052691;27;20358;-45
2021/04/17 04:06:15;;;;;;;38.17;14.23;;;;;;;4.80;89.55;99982.91;5052620;28;20101;-44
2021/04/17 04:08:41;;;;;;;50.75;14.48;;;;;;;4.72;89.92;99979.44;5052348;28;20056;-45
2021/04/17 04:11:06;;;;;;;44.75;16.17;;;;;;;4.77;89.54;99980.31;5052265;28;20053;-44
2021/04/17 04:13:32;;;;;;;32.47;13.82;;;;;;;4.75;89.72;99982.06;5052303;27;20114;-45
2021/04/17 04:15:58;;;;;;;61.10;16.83;;;;;;;4.76;89.90;99987.22;5052312;28;20055;-45
2021/04/17 04:18:24;;;;;;;54.42;15.48;;;;;;;4.74;89.91;99999.31;5052660;27;20077;-44
2021/04/17 04:20:49;;;;;;;62.45;17.52;;;;;;;4.81;89.71;99985.53;5052153;28;20055;-44
2021/04/17 04:23:15;;;;;;;50.45;15.13;;;;;;;4.84;89.74;99982.94;5052510;28;20060;-45
2021/04/17 04:25:41;;;;;;;39.70;15.18;;;;;;;4.86;89.75;99981.19;5055799;28;20056;-45
2021/04/17 04:28:06;;;;;;;56.78;15.15;;;;;;;4.82;89.70;99981.19;5055864;28;20076;-45
2021/04/17 04:30:32;;;;;;;56.47;15.77;;;;;;;4.81;89.58;99969.06;5055053;28;20128;-44
2021/04/17 04:32:58;;;;;;;26.67;14.32;;;;;;;4.83;89.61;99985.50;5055616;27;20101;-44
2021/04/17 04:35:24;;;;;;;49.92;16.35;;;;;;;4.79;90.00;99981.19;5056266;28;20190;-45
2021/04/17 04:37:50;;;;;;;20.98;13.25;;;;;;;4.86;90.18;99980.31;5055469;27;20048;-45
2021/04/17 04:40:15;;;;;;;53.25;18.15;;;;;;;4.90;90.07;99980.31;5055692;28;20049;-45
2021/04/17 04:42:41;;;;;;;35.72;15.55;;;;;;;4.86;89.96;99983.78;5055335;28;20056;-45
2021/04/17 04:45:08;;;;;;;39.75;16.55;;;;;;;4.78;90.20;99988.09;5055534;28;20041;-44
2021/04/17 04:47:34;;;;;;;42.55;16.15;;;;;;;4.75;90.19;99982.91;5055282;28;20492;-45
2021/04/17 04:50:00;;;;;;;27.38;15.00;;;;;;;4.82;90.18;99982.06;5055080;28;20065;-44
2021/04/17 04:52:25;;;;;;;36.97;14.88;;;;;;;4.83;90.19;99988.09;5055679;27;20131;-44
2021/04/17 04:54:51;;;;;;;30.67;15.85;;;;;;;4.93;90.16;99992.44;5055452;28;20430;-44
2021/04/17 04:57:17;;;;;;;32.10;16.15;;;;;;;4.88;90.04;99996.78;5055109;28;20473;-45
2021/04/17 04:59:42;;;;;;;35.92;17.02;;;;;;;4.97;89.90;99999.34;5055361;28;20048;-45
2021/04/17 05:02:08;;;;;;;37.38;17.40;;;;;;;4.98;89.65;99989.84;5055513;27;20399;-45
2021/04/17 05:04:34;;;;;;;25.98;16.00;;;;;;;5.05;89.54;99992.44;5055276;28;20335;-45
2021/04/17 05:07:00;;;;;;;45.83;17.20;;;;;;;4.90;89.72;99997.63;5055306;27;20049;-45
2021/04/17 05:09:25;;;;;;;25.08;14.82;;;;;;;4.99;89.73;100008.03;5054923;28;20053;-45
2021/04/17 05:11:51;;;;;;;25.45;16.08;;;;;;;5.09;89.59;100014.94;5054938;27;20049;-45
2021/04/17 05:14:17;;;;;;;44.38;26.67;;;;;;;5.06;89.51;100021.88;5055141;28;20044;-45
2021/04/17 05:16:43;;;;;;;38.03;23.15;;;;;;;5.12;89.43;100014.94;5054207;28;20132;-45
2021/04/17 05:19:08;;;;;;;29.42;18.20;;;;;;;5.23;89.04;100020.16;5053761;28;20067;-45
2021/04/17 05:21:34;;;;;;;29.83;16.83;;;;;;;5.25;88.92;100015.81;5052892;28;20251;-45
2021/04/17 05:24:00;;;;;;;33.90;17.15;;;;;;;5.25;88.36;100014.94;5053076;28;20045;-45
2021/04/17 05:26:26;;;;;;;32.28;18.25;;;;;;;5.19;88.72;100015.81;5053167;28;20053;-44
2021/04/17 05:28:52;;;;;;;26.60;16.65;;;;;;;5.36;88.60;100002.81;5053112;28;20109;-45
2021/04/17 05:31:18;;;;;;;30.00;19.63;;;;;;;5.37;88.17;100007.16;5053131;28;20480;-45
2021/04/17 05:33:43;;;;;;;30.35;18.83;;;;;;;5.27;87.89;100005.44;5051901;28;20041;-45
2021/04/17 05:36:09;;;;;;;36.58;21.50;;;;;;;5.29;88.21;100009.75;5052431;27;20037;-45
2021/04/17 05:38:35;;;;;;;28.50;19.20;;;;;;;5.33;87.99;100005.41;5054805;28;20450;-45
2021/04/17 05:41:01;;;;;;;37.40;21.42;;;;;;;5.31;87.90;100010.63;5053598;28;20362;-44
2021/04/17 05:43:26;;;;;;;38.58;22.27;;;;;;;5.32;88.26;100014.06;5054421;28;20051;-45
2021/04/17 05:45:52;;;;;;;32.00;19.63;;;;;;;5.27;87.95;100005.44;5054599;28;20045;-45
2021/04/17 05:48:18;;;;;;;31.15;18.33;;;;;;;5.31;88.05;100010.63;5054605;28;20052;-45
2021/04/17 05:50:43;;;;;;;33.10;18.13;;;;;;;5.37;88.03;100017.56;5054312;27;20135;-45
2021/04/17 05:53:09;;;;;;;31.67;17.98;;;;;;;5.32;87.94;100009.75;5054564;28;20160;-45
2021/04/17 05:55:35;;;;;;;34.63;19.75;;;;;;;5.33;88.04;100015.81;5055316;28;20053;-45
2021/04/17 05:58:01;;;;;;;31.05;18.90;;;;;;;5.40;87.84;100022.75;5053617;28;20362;-45
2021/04/17 06:00:27;;;;;;;32.22;18.55;;;;;;;5.38;87.96;100017.53;5037392;28;20045;-45
2021/04/17 06:02:53;;;;;;;34.58;19.48;;;;;;;5.40;87.60;100022.75;5053537;28;20041;-45
2021/04/17 06:05:19;;;;;;;34.85;22.33;;;;;;;5.38;87.71;100025.31;5054069;28;20346;-45
2021/04/17 06:07:45;;;;;;;29.58;19.67;;;;;;;5.30;87.64;100013.22;5054390;27;20048;-45
2021/04/17 06:10:11;;;;;;;31.83;18.95;;;;;;;5.39;87.43;100019.28;5053438;28;20346;-45
2021/04/17 06:12:37;;;;;;;26.95;17.55;;;;;;;5.42;87.24;100023.59;5053909;28;20057;-45
2021/04/17 06:15:03;;;;;;;33.72;18.85;;;;;;;5.47;86.85;100029.66;5053886;28;20077;-45
2021/04/17 06:17:29;;;;;;;26.45;18.00;;;;;;;5.43;86.66;100017.56;5054203;28;20136;-45
2021/04/17 06:19:55;;;;;;;25.70;17.73;;;;;;;5.35;86.95;100011.47;5053293;28;20102;-45
2021/04/17 06:22:21;;;;;;;32.47;19.10;;;;;;;5.42;86.84;100015.81;5054069;28;20148;-45
2021/04/17 06:24:47;;;;;;;30.55;17.70;;;;;;;5.45;87.05;100008.00;5054010;28;20056;-45
2021/04/17 06:27:12;;;;;;;27.98;18.05;;;;;;;5.35;86.65;100006.28;5105443;28;20076;-45
2021/04/17 06:29:39;;;;;;;26.95;18.20;;;;;;;5.23;86.79;100012.38;5054027;28;20079;-45
2021/04/17 06:32:04;;;;;;;30.08;18.60;;;;;;;5.37;87.34;100010.63;5053992;28;20124;-45
2021/04/17 06:34:30;;;;;;;33.05;19.25;;;;;;;5.24;87.38;100019.28;5053623;28;20069;-45
2021/04/17 06:36:56;;;;;;;25.15;16.52;;;;;;;5.30;87.40;100024.47;5053588;28;20063;-45
2021/04/17 06:39:23;;;;;;;31.17;19.02;;;;;;;5.36;87.20;100013.19;5053855;28;20056;-45
2021/04/17 06:41:48;;;;;;;32.10;19.13;;;;;;;5.45;87.33;100015.81;5053814;28;20124;-45
2021/04/17 06:44:15;;;;;;;30.95;18.48;;;;;;;5.39;87.28;100016.69;5052534;28;20362;-45
2021/04/17 06:46:41;;;;;;;38.00;23.00;;;;;;;5.45;86.99;100017.53;5053439;28;20060;-45
2021/04/17 06:49:07;;;;;;;33.95;22.25;;;;;;;5.52;86.82;100016.66;5053758;28;20148;-45
2021/04/17 06:51:33;;;;;;;30.17;18.65;;;;;;;5.45;86.64;100021.00;5053666;28;20045;-45
2021/04/17 06:53:59;;;;;;;37.10;21.15;;;;;;;5.51;86.38;100023.59;5052738;28;20053;-45
2021/04/17 06:56:24;;;;;;;27.98;17.63;;;;;;;5.53;86.68;100021.88;5052854;28;20366;-45
2021/04/17 06:58:51;;;;;;;30.30;18.42;;;;;;;5.53;86.90;100026.19;5052728;28;20467;-45
2021/04/17 07:01:16;;;;;;;40.60;26.83;;;;;;;5.54;86.72;100018.38;5053510;28;20064;-45
2021/04/17 07:03:42;;;;;;;29.95;19.20;;;;;;;5.56;86.57;100023.59;5053842;27;20041;-45
2021/04/17 07:06:08;;;;;;;26.65;17.75;;;;;;;5.62;86.57;100026.16;5035811;28;20045;-45
2021/04/17 07:08:37;;;;;;;30.08;18.15;;;;;;;5.60;86.26;100023.59;5053563;27;20132;-45
2021/04/17 07:11:03;;;;;;;30.42;18.83;;;;;;;5.66;86.29;100029.66;5052854;28;20097;-45
2021/04/17 07:13:29;;;;;;;35.45;20.38;;;;;;;5.59;86.03;100024.47;5053378;27;20061;-45
2021/04/17 07:16:04;;;;;;;30.30;19.10;;;;;;;5.58;86.26;100030.50;5053038;28;20439;-45
2021/04/17 07:18:30;;;;;;;33.22;19.75;;;;;;;5.67;85.83;100029.63;5053333;28;20063;-45
2021/04/17 07:20:58;;;;;;;32.20;18.98;;;;;;;5.70;85.31;100028.78;5053269;28;20108;-45
2021/04/17 07:23:29;;;;;;;33.60;20.77;;;;;;;5.68;85.01;100020.09;5052920;28;20045;-45
2021/04/17 07:26:12;;;;;;;31.25;19.88;;;;;;;5.64;85.46;100021.84;5052852;28;20473;-45
2021/04/17 07:28:57;;;;;;;31.38;21.00;;;;;;;5.66;86.01;100024.47;5053216;28;20049;-44
2021/04/17 07:31:23;;;;;;;32.08;20.05;;;;;;;5.66;85.34;100016.66;5053164;28;20062;-45
2021/04/17 07:33:49;;;;;;;34.75;21.55;;;;;;;5.70;85.65;100019.25;5053101;28;20052;-45
2021/04/17 07:36:17;;;;;;;49.75;27.55;;;;;;;5.65;85.22;100023.56;5052217;28;20332;-45
2021/04/17 07:38:43;;;;;;;54.72;29.80;;;;;;;5.60;85.47;100025.31;5035431;28;20041;-45
2021/04/17 07:41:10;;;;;;;43.95;22.25;;;;;;;5.69;85.38;100025.31;5053007;28;20041;-45
2021/04/17 07:43:49;;;;;;;30.05;17.42;;;;;;;5.63;84.70;100035.72;5053246;28;20041;-45
2021/04/17 07:46:16;;;;;;;25.65;17.15;;;;;;;5.76;85.23;100034.81;5052714;28;20442;-45
2021/04/17 07:48:42;;;;;;;28.60;18.00;;;;;;;5.71;84.80;100027.91;5052717;28;20063;-45
2021/04/17 07:51:08;;;;;;;39.10;22.67;;;;;;;5.66;85.28;100030.50;5053246;28;20049;-45
2021/04/17 07:53:39;;;;;;;44.28;26.42;;;;;;;5.57;85.58;100026.19;5052858;28;20057;-45
2021/04/17 07:56:27;;;;;;;41.13;28.08;;;;;;;5.68;85.21;100025.28;5052884;28;20049;-45
2021/04/17 07:58:57;;;;;;;107.05;64.13;;;;;;;5.77;85.75;100033.09;5053917;28;20105;-45
2021/04/17 08:01:24;;;;;;;150.07;105.95;;;;;;;5.74;85.26;100035.69;5056290;28;20079;-45
2021/04/17 08:03:49;;;;;;;61.22;44.35;;;;;;;5.76;85.83;100032.22;5055822;28;20055;-45
2021/04/17 08:06:16;;;;;;;30.92;23.05;;;;;;;5.82;85.75;100032.22;5055384;28;20045;-45
2021/04/17 08:08:42;;;;;;;34.72;19.92;;;;;;;5.86;85.77;100033.94;5056142;28;20045;-45
2021/04/17 08:11:08;;;;;;;32.47;19.95;;;;;;;5.93;85.90;100032.22;5055787;28;20105;-45
2021/04/17 08:13:37;;;;;;;35.28;21.30;;;;;;;5.81;86.13;100032.19;5055831;28;20071;-45
2021/04/17 08:16:03;;;;;;;34.80;20.65;;;;;;;6.00;86.10;100025.25;5055238;28;20051;-45
2021/04/17 08:18:29;;;;;;;45.05;22.27;;;;;;;6.09;85.46;100026.09;5038762;28;20048;-45
2021/04/17 08:20:55;;;;;;;30.42;18.17;;;;;;;6.05;84.69;100029.59;5038602;28;20056;-45
2021/04/17 08:23:21;;;;;;;41.05;29.55;;;;;;;6.04;84.98;100029.56;5056320;27;20041;-45
2021/04/17 08:25:51;;;;;;;34.40;20.35;;;;;;;6.04;85.05;100034.78;5055828;28;20060;-45
2021/04/17 08:28:21;;;;;;;38.72;22.45;;;;;;;6.19;84.65;100033.88;5055902;28;20117;-45
2021/04/17 08:30:47;;;;;;;38.65;21.80;;;;;;;6.24;84.62;100033.00;5055918;28;20078;-45
2021/04/17 08:33:14;;;;;;;34.75;20.33;;;;;;;6.25;84.54;100028.66;5056156;27;20403;-45
2021/04/17 08:35:39;;;;;;;29.88;17.85;;;;;;;6.33;84.44;100024.25;5055767;28;20041;-45
2021/04/17 08:38:10;;;;;;;27.77;16.88;;;;;;;6.30;84.07;100029.47;5055673;27;20055;-45
2021/04/17 08:40:35;;;;;;;27.67;16.83;;;;;;;6.37;84.41;100028.59;5054918;28;20063;-45
2021/04/17 08:43:27;;;;;;;34.58;20.60;;;;;;;6.30;83.34;100038.19;5055372;28;20124;-45
2021/04/17 08:46:17;;;;;;;31.65;19.00;;;;;;;6.32;83.02;100027.75;5055599;28;20045;-45
2021/04/17 08:48:54;;;;;;;42.25;24.42;;;;;;;6.25;83.29;100026.91;5055121;28;20049;-45
2021/04/17 08:51:34;;;;;;;69.55;45.10;;;;;;;6.32;83.69;100025.16;5055255;28;20048;-45
2021/04/17 08:54:00;;;;;;;110.53;69.82;;;;;;;6.49;83.13;100022.47;5038167;28;20119;-45
2021/04/17 08:56:58;;;;;;;52.78;34.80;;;;;;;6.40;82.51;100020.78;5055462;28;20060;-45
2021/04/17 08:59:28;;;;;;;34.53;21.60;;;;;;;6.45;83.21;100023.34;5055137;28;20387;-45
2021/04/17 09:01:55;;;;;;;32.80;20.20;;;;;;;6.53;83.08;100019.84;5054385;28;20045;-45
2021/04/17 09:04:23;;;;;;;31.15;18.73;;;;;;;6.47;82.32;100019.88;5054987;28;20045;-45
2021/04/17 09:06:51;;;;;;;31.25;19.48;;;;;;;6.55;82.53;100014.63;5055286;28;20060;-45
2021/04/17 09:09:17;;;;;;;35.13;19.63;;;;;;;6.53;82.58;100016.34;5054945;28;20056;-45
2021/04/17 09:11:44;;;;;;;34.30;19.02;;;;;;;6.48;82.88;100011.19;5055249;28;20053;-45
2021/04/17 09:14:28;;;;;;;33.80;19.23;;;;;;;6.75;82.60;100002.34;5054889;28;20474;-45
2021/04/17 09:17:26;;;;;;;31.23;17.45;;;;;;;6.70;82.78;100013.69;5055169;28;20052;-45
2021/04/17 09:19:52;;;;;;;24.95;17.20;;;;;;;6.60;82.23;100010.28;5054695;28;20049;-45
2021/04/17 09:22:24;;;;;;;40.88;23.05;;;;;;;6.53;82.71;100018.97;5054697;28;20075;-45
2021/04/17 09:24:54;;;;;;;50.33;23.08;;;;;;;6.52;83.33;100018.09;5054127;28;20045;-45
2021/04/17 09:27:29;;;;;;;36.50;20.60;;;;;;;6.67;82.35;100018.91;5054657;28;20049;-45
2021/04/17 09:29:58;;;;;;;34.22;20.80;;;;;;;6.70;82.43;100013.69;5054627;28;20071;-45
2021/04/17 09:32:34;;;;;;;30.05;19.88;;;;;;;6.71;82.12;100020.59;5054921;28;20049;-45
2021/04/17 09:34:59;;;;;;;26.40;16.38;;;;;;;6.65;82.77;100018.03;5054866;28;20045;-45
2021/04/17 09:37:26;;;;;;;27.85;18.15;;;;;;;6.71;82.67;100018.00;5054692;28;20056;-45
2021/04/17 09:39:52;;;;;;;25.13;17.48;;;;;;;6.76;82.15;100021.47;5054826;28;20049;-45
2021/04/17 09:42:28;;;;;;;30.23;17.38;;;;;;;6.81;82.31;100014.47;5053668;28;20053;-45
2021/04/17 09:44:54;;;;;;;28.70;17.38;;;;;;;6.67;82.86;100009.34;5052747;28;20255;-45
2021/04/17 09:47:20;;;;;;;24.73;14.95;;;;;;;6.87;82.59;100019.63;5052568;28;20053;-45
2021/04/17 09:49:46;;;;;;;31.73;17.30;;;;;;;6.99;81.90;100016.97;5052469;28;20104;-45
2021/04/17 09:52:18;;;;;;;28.27;16.67;;;;;;;6.93;82.04;100016.13;5053449;28;20052;-45
2021/04/17 09:54:47;;;;;;;26.20;15.98;;;;;;;6.92;81.89;100011.78;5054543;28;20072;-45
2021/04/17 09:57:13;;;;;;;21.52;15.20;;;;;;;6.95;82.23;100014.38;5054550;28;20060;-45
2021/04/17 09:59:38;;;;;;;25.60;15.13;;;;;;;6.94;82.03;100016.09;5054458;28;20081;-45
2021/04/17 10:02:04;;;;;;;32.92;20.98;;;;;;;6.90;82.53;100017.00;5051268;28;20052;-45
2021/04/17 10:04:46;;;;;;;44.33;24.42;;;;;;;6.95;82.16;100016.97;5054072;28;20037;-45
2021/04/17 10:07:12;;;;;;;358.90;143.87;;;;;;;6.93;82.63;100011.78;5054403;28;20053;-45
2021/04/17 10:09:38;;;;;;;127.05;60.60;;;;;;;6.95;82.04;100016.97;5054262;28;20045;-45
2021/04/17 10:12:05;;;;;;;183.77;92.32;;;;;;;6.96;81.75;100014.38;5054553;28;20300;-45
2021/04/17 10:14:30;;;;;;;41.85;25.45;;;;;;;6.77;82.49;100011.03;5053123;28;20053;-45
2021/04/17 10:16:56;;;;;;;27.75;18.13;;;;;;;6.87;81.93;100016.19;5053978;28;20048;-45
2021/04/17 10:19:22;;;;;;;36.20;20.92;;;;;;;6.82;82.19;100016.19;5054043;27;20045;-45
2021/04/17 10:21:54;;;;;;;46.83;24.30;;;;;;;6.95;82.01;100012.63;5035891;28;20072;-45
2021/04/17 10:24:33;;;;;;;59.33;28.17;;;;;;;6.93;82.12;100013.53;5054358;28;20124;-45
2021/04/17 10:27:13;;;;;;;35.15;20.40;;;;;;;6.84;81.80;100006.63;5053770;28;20355;-45
2021/04/17 10:29:41;;;;;;;35.03;23.75;;;;;;;6.87;82.19;100014.44;5054019;28;20140;-45
2021/04/17 10:32:11;;;;;;;29.85;19.95;;;;;;;6.97;82.00;100017.84;5053839;27;20045;-45
2021/04/17 10:34:37;;;;;;;27.38;17.88;;;;;;;6.91;82.29;100015.28;5053956;28;20161;-45
2021/04/17 10:37:06;;;;;;;32.33;22.17;;;;;;;6.90;82.24;100013.56;5053918;28;20048;-45
2021/04/17 10:39:31;;;;;;;30.67;24.17;;;;;;;6.92;82.30;100020.47;5053642;28;20475;-45
2021/04/17 10:42:00;;;;;;;28.23;17.58;;;;;;;6.81;82.22;100021.41;5052905;28;20091;-45
2021/04/17 10:44:25;;;;;;;26.05;16.85;;;;;;;6.90;82.49;100008.34;5053418;28;20048;-45
2021/04/17 10:46:51;;;;;;;24.08;16.45;;;;;;;6.96;82.27;100014.38;5054052;28;20037;-45
2021/04/17 10:49:30;;;;;;;31.48;17.58;;;;;;;6.91;82.04;100015.28;5053183;28;20053;-45
2021/04/17 10:51:56;;;;;;;22.95;16.90;;;;;;;6.99;82.45;100011.75;5053625;28;20041;-45
2021/04/17 10:54:23;;;;;;;30.38;18.70;;;;;;;7.14;81.97;100018.56;5053639;28;20056;-45
2021/04/17 10:56:57;;;;;;;29.98;18.98;;;;;;;7.07;82.07;100009.06;5053374;28;20049;-45
2021/04/17 10:59:22;;;;;;;27.85;16.85;;;;;;;7.08;82.64;100009.94;5052734;28;20056;-45
2021/04/17 11:01:48;;;;;;;25.27;15.55;;;;;;;7.18;82.30;100007.28;5053325;28;20041;-45
2021/04/17 11:04:14;;;;;;;23.35;15.30;;;;;;;7.26;81.91;100015.00;5053232;27;20051;-45
2021/04/17 11:06:45;;;;;;;19.17;14.10;;;;;;;7.26;82.16;100012.41;5052412;28;20140;-45
2021/04/17 11:09:11;;;;;;;30.65;19.58;;;;;;;7.43;81.65;100009.66;5052635;28;20068;-45
2021/04/17 11:11:55;;;;;;;28.00;19.45;;;;;;;7.36;81.17;100015.78;5053409;27;20045;-45
2021/04/17 11:14:23;;;;;;;29.35;18.65;;;;;;;7.27;81.67;100008.91;5053368;28;20048;-45
2021/04/17 11:16:53;;;;;;;30.77;20.63;;;;;;;7.31;82.07;100009.75;5035714;28;20057;-45
2021/04/17 11:19:29;;;;;;;32.28;21.50;;;;;;;7.43;81.56;100013.09;5053038;28;20044;-46
2021/04/17 11:22:05;;;;;;;34.78;21.33;;;;;;;7.30;81.69;100016.69;5053183;28;20145;-45
2021/04/17 11:24:31;;;;;;;31.20;19.50;;;;;;;7.43;81.02;100007.03;5053182;28;20049;-45